sensor_id;sensor_type;location;lat;lon;timestamp;P1;durP1;ratioP1;P2;durP2;ratioP2
48026;SDS011;50714;49.208;5.364;2023-04-29T00:02:50;2.00;;;1.80;;
48026;SDS011;50714;49.208;5.364;2023-04-29T00:12:50;2.42;;;1.83;;
48026;SDS011;50714;49.208;5.364;2023-04-29T00:22:51;2.08;;;1.88;;
48026;SDS011;50714;49.208;5.364;2023-04-29T00:32:51;2.65;;;1.85;;
48026;SDS011;50714;49.208;5.364;2023-04-29T00:42:52;1.92;;;1.27;;
48026;SDS011;50714;49.208;5.364;2023-04-29T00:52:52;1.58;;;1.38;;
48026;SDS011;50714;49.208;5.364;2023-04-29T01:02:53;1.83;;;1.40;;
48026;SDS011;50714;49.208;5.364;2023-04-29T01:23:28;2.38;;;1.52;;
48026;SDS011;50714;49.208;5.364;2023-04-29T01:43:55;1.48;;;1.35;;
48026;SDS011;50714;49.208;5.364;2023-04-29T01:53:57;1.25;;;1.15;;
48026;SDS011;50714;49.208;5.364;2023-04-29T02:03:58;1.58;;;1.40;;
48026;SDS011;50714;49.208;5.364;2023-04-29T02:13:58;1.70;;;1.30;;
48026;SDS011;50714;49.208;5.364;2023-04-29T02:23:58;2.30;;;1.48;;
48026;SDS011;50714;49.208;5.364;2023-04-29T02:33:59;1.30;;;1.20;;
48026;SDS011;50714;49.208;5.364;2023-04-29T02:43:59;1.35;;;1.20;;
48026;SDS011;50714;49.208;5.364;2023-04-29T02:53:59;1.05;;;0.95;;
48026;SDS011;50714;49.208;5.364;2023-04-29T03:04:00;2.25;;;1.42;;
48026;SDS011;50714;49.208;5.364;2023-04-29T03:14:01;1.50;;;1.40;;
48026;SDS011;50714;49.208;5.364;2023-04-29T03:24:03;3.47;;;1.80;;
48026;SDS011;50714;49.208;5.364;2023-04-29T03:34:03;3.40;;;2.20;;
48026;SDS011;50714;49.208;5.364;2023-04-29T03:44:04;2.70;;;2.03;;
48026;SDS011;50714;49.208;5.364;2023-04-29T03:54:04;1.80;;;1.70;;
48026;SDS011;50714;49.208;5.364;2023-04-29T04:04:05;2.10;;;1.70;;
48026;SDS011;50714;49.208;5.364;2023-04-29T04:14:05;2.08;;;1.60;;
48026;SDS011;50714;49.208;5.364;2023-04-29T04:24:06;5.00;;;3.75;;
48026;SDS011;50714;49.208;5.364;2023-04-29T04:34:06;4.22;;;3.47;;
48026;SDS011;50714;49.208;5.364;2023-04-29T04:44:07;3.97;;;3.03;;
48026;SDS011;50714;49.208;5.364;2023-04-29T04:54:07;3.17;;;2.25;;
48026;SDS011;50714;49.208;5.364;2023-04-29T05:04:08;9.13;;;8.23;;
48026;SDS011;50714;49.208;5.364;2023-04-29T05:14:08;3.78;;;3.25;;
48026;SDS011;50714;49.208;5.364;2023-04-29T05:24:08;3.80;;;3.00;;
48026;SDS011;50714;49.208;5.364;2023-04-29T05:34:09;4.07;;;2.78;;
48026;SDS011;50714;49.208;5.364;2023-04-29T05:44:09;5.60;;;3.33;;
48026;SDS011;50714;49.208;5.364;2023-04-29T05:54:10;7.47;;;5.68;;
48026;SDS011;50714;49.208;5.364;2023-04-29T06:04:10;4.82;;;4.32;;
48026;SDS011;50714;49.208;5.364;2023-04-29T06:14:10;4.57;;;3.70;;
48026;SDS011;50714;49.208;5.364;2023-04-29T06:24:11;5.18;;;4.32;;
48026;SDS011;50714;49.208;5.364;2023-04-29T06:34:11;4.80;;;4.25;;
48026;SDS011;50714;49.208;5.364;2023-04-29T06:44:12;5.97;;;5.15;;
48026;SDS011;50714;49.208;5.364;2023-04-29T06:54:12;5.30;;;4.78;;
48026;SDS011;50714;49.208;5.364;2023-04-29T07:04:12;5.80;;;4.95;;
48026;SDS011;50714;49.208;5.364;2023-04-29T07:14:13;7.45;;;5.38;;
48026;SDS011;50714;49.208;5.364;2023-04-29T07:24:13;7.28;;;5.95;;
48026;SDS011;50714;49.208;5.364;2023-04-29T07:34:13;13.27;;;9.48;;
48026;SDS011;50714;49.208;5.364;2023-04-29T07:44:14;9.57;;;8.10;;
48026;SDS011;50714;49.208;5.364;2023-04-29T07:54:14;9.18;;;8.13;;
48026;SDS011;50714;49.208;5.364;2023-04-29T08:04:15;8.57;;;6.82;;
48026;SDS011;50714;49.208;5.364;2023-04-29T08:14:15;7.57;;;6.85;;
48026;SDS011;50714;49.208;5.364;2023-04-29T08:24:16;8.23;;;7.35;;
48026;SDS011;50714;49.208;5.364;2023-04-29T08:34:16;8.52;;;7.63;;
48026;SDS011;50714;49.208;5.364;2023-04-29T08:44:17;9.60;;;7.90;;
48026;SDS011;50714;49.208;5.364;2023-04-29T08:54:17;10.43;;;8.63;;
48026;SDS011;50714;49.208;5.364;2023-04-29T09:04:28;10.57;;;8.65;;
48026;SDS011;50714;49.208;5.364;2023-04-29T09:14:29;9.23;;;7.18;;
48026;SDS011;50714;49.208;5.364;2023-04-29T09:24:33;7.68;;;6.03;;
48026;SDS011;50714;49.208;5.364;2023-04-29T09:34:34;7.85;;;6.30;;
48026;SDS011;50714;49.208;5.364;2023-04-29T09:44:40;13.52;;;11.88;;
48026;SDS011;50714;49.208;5.364;2023-04-29T09:54:41;8.70;;;7.20;;
48026;SDS011;50714;49.208;5.364;2023-04-29T10:04:47;7.07;;;5.63;;
48026;SDS011;50714;49.208;5.364;2023-04-29T10:25:00;7.70;;;5.60;;
48026;SDS011;50714;49.208;5.364;2023-04-29T10:35:05;6.43;;;4.50;;
48026;SDS011;50714;49.208;5.364;2023-04-29T10:55:16;5.13;;;3.65;;
48026;SDS011;50714;49.208;5.364;2023-04-29T11:05:17;5.80;;;4.15;;
48026;SDS011;50714;49.208;5.364;2023-04-29T11:15:30;5.05;;;3.83;;
48026;SDS011;50714;49.208;5.364;2023-04-29T11:25:31;3.83;;;3.10;;
48026;SDS011;50714;49.208;5.364;2023-04-29T11:35:33;5.78;;;3.78;;
48026;SDS011;50714;49.208;5.364;2023-04-29T11:45:38;5.97;;;4.15;;
48026;SDS011;50714;49.208;5.364;2023-04-29T11:55:40;4.82;;;3.58;;
48026;SDS011;50714;49.208;5.364;2023-04-29T12:06:01;4.28;;;3.05;;
48026;SDS011;50714;49.208;5.364;2023-04-29T12:16:02;4.43;;;3.47;;
48026;SDS011;50714;49.208;5.364;2023-04-29T12:26:03;4.72;;;3.80;;
48026;SDS011;50714;49.208;5.364;2023-04-29T12:36:14;5.97;;;4.40;;
48026;SDS011;50714;49.208;5.364;2023-04-29T12:46:16;5.78;;;4.78;;
48026;SDS011;50714;49.208;5.364;2023-04-29T12:56:20;6.63;;;4.97;;
48026;SDS011;50714;49.208;5.364;2023-04-29T13:06:20;7.20;;;5.10;;
48026;SDS011;50714;49.208;5.364;2023-04-29T13:16:20;6.75;;;5.20;;
48026;SDS011;50714;49.208;5.364;2023-04-29T13:26:21;6.75;;;5.07;;
48026;SDS011;50714;49.208;5.364;2023-04-29T13:36:22;5.78;;;4.47;;
48026;SDS011;50714;49.208;5.364;2023-04-29T13:46:23;6.43;;;4.30;;
48026;SDS011;50714;49.208;5.364;2023-04-29T13:56:23;5.47;;;4.28;;
48026;SDS011;50714;49.208;5.364;2023-04-29T14:06:24;5.40;;;4.47;;
48026;SDS011;50714;49.208;5.364;2023-04-29T14:16:25;5.03;;;4.15;;
48026;SDS011;50714;49.208;5.364;2023-04-29T14:26:27;4.65;;;3.60;;
48026;SDS011;50714;49.208;5.364;2023-04-29T14:36:29;5.25;;;3.47;;
48026;SDS011;50714;49.208;5.364;2023-04-29T14:46:31;4.97;;;3.95;;
48026;SDS011;50714;49.208;5.364;2023-04-29T14:56:31;4.82;;;3.28;;
48026;SDS011;50714;49.208;5.364;2023-04-29T15:06:32;5.25;;;3.78;;
48026;SDS011;50714;49.208;5.364;2023-04-29T15:16:33;3.63;;;2.72;;
48026;SDS011;50714;49.208;5.364;2023-04-29T15:26:33;5.05;;;3.60;;
48026;SDS011;50714;49.208;5.364;2023-04-29T15:36:34;3.50;;;2.60;;
48026;SDS011;50714;49.208;5.364;2023-04-29T15:46:34;3.13;;;2.83;;
48026;SDS011;50714;49.208;5.364;2023-04-29T15:56:35;3.35;;;2.67;;
48026;SDS011;50714;49.208;5.364;2023-04-29T16:06:36;3.92;;;2.90;;
48026;SDS011;50714;49.208;5.364;2023-04-29T16:16:36;5.75;;;4.38;;
48026;SDS011;50714;49.208;5.364;2023-04-29T16:26:36;4.90;;;3.70;;
48026;SDS011;50714;49.208;5.364;2023-04-29T16:36:39;4.93;;;4.07;;
48026;SDS011;50714;49.208;5.364;2023-04-29T16:46:39;4.53;;;3.88;;
48026;SDS011;50714;49.208;5.364;2023-04-29T16:56:40;4.20;;;3.60;;
48026;SDS011;50714;49.208;5.364;2023-04-29T17:06:40;4.82;;;3.53;;
48026;SDS011;50714;49.208;5.364;2023-04-29T17:16:40;4.05;;;3.28;;
48026;SDS011;50714;49.208;5.364;2023-04-29T17:26:41;4.38;;;3.40;;
48026;SDS011;50714;49.208;5.364;2023-04-29T17:36:41;4.03;;;3.10;;
48026;SDS011;50714;49.208;5.364;2023-04-29T17:46:41;3.97;;;3.13;;
48026;SDS011;50714;49.208;5.364;2023-04-29T17:56:42;4.15;;;3.45;;
48026;SDS011;50714;49.208;5.364;2023-04-29T18:06:43;3.83;;;3.22;;
48026;SDS011;50714;49.208;5.364;2023-04-29T18:16:43;4.95;;;3.60;;
48026;SDS011;50714;49.208;5.364;2023-04-29T18:26:44;2.93;;;2.63;;
48026;SDS011;50714;49.208;5.364;2023-04-29T18:36:44;3.22;;;2.60;;
48026;SDS011;50714;49.208;5.364;2023-04-29T18:46:44;2.95;;;2.20;;
48026;SDS011;50714;49.208;5.364;2023-04-29T18:56:45;1.80;;;1.67;;
48026;SDS011;50714;49.208;5.364;2023-04-29T19:06:47;2.30;;;2.08;;
48026;SDS011;50714;49.208;5.364;2023-04-29T19:16:47;3.15;;;2.10;;
48026;SDS011;50714;49.208;5.364;2023-04-29T19:26:48;2.20;;;2.00;;
48026;SDS011;50714;49.208;5.364;2023-04-29T19:36:48;2.20;;;2.00;;
48026;SDS011;50714;49.208;5.364;2023-04-29T19:46:49;2.10;;;1.88;;
48026;SDS011;50714;49.208;5.364;2023-04-29T19:56:51;4.70;;;3.65;;
48026;SDS011;50714;49.208;5.364;2023-04-29T20:06:51;5.10;;;3.67;;
48026;SDS011;50714;49.208;5.364;2023-04-29T20:16:51;1.90;;;1.80;;
48026;SDS011;50714;49.208;5.364;2023-04-29T20:26:52;2.33;;;1.85;;
48026;SDS011;50714;49.208;5.364;2023-04-29T20:36:52;3.55;;;2.60;;
48026;SDS011;50714;49.208;5.364;2023-04-29T20:46:52;2.30;;;2.10;;
48026;SDS011;50714;49.208;5.364;2023-04-29T20:56:53;2.88;;;2.50;;
48026;SDS011;50714;49.208;5.364;2023-04-29T21:06:53;2.95;;;2.58;;
48026;SDS011;50714;49.208;5.364;2023-04-29T21:16:53;3.38;;;2.50;;
48026;SDS011;50714;49.208;5.364;2023-04-29T21:26:54;2.88;;;2.15;;
48026;SDS011;50714;49.208;5.364;2023-04-29T21:36:54;5.10;;;3.88;;
48026;SDS011;50714;49.208;5.364;2023-04-29T21:46:55;5.85;;;4.97;;
48026;SDS011;50714;49.208;5.364;2023-04-29T21:56:58;3.55;;;2.80;;
48026;SDS011;50714;49.208;5.364;2023-04-29T22:06:59;3.45;;;2.78;;
48026;SDS011;50714;49.208;5.364;2023-04-29T22:17:00;3.45;;;3.08;;
48026;SDS011;50714;49.208;5.364;2023-04-29T22:27:00;3.35;;;2.75;;
48026;SDS011;50714;49.208;5.364;2023-04-29T22:37:02;4.47;;;3.13;;
48026;SDS011;50714;49.208;5.364;2023-04-29T22:47:02;4.85;;;3.67;;
48026;SDS011;50714;49.208;5.364;2023-04-29T22:57:03;5.18;;;4.10;;
48026;SDS011;50714;49.208;5.364;2023-04-29T23:07:04;4.63;;;3.60;;
48026;SDS011;50714;49.208;5.364;2023-04-29T23:17:04;5.18;;;3.80;;
48026;SDS011;50714;49.208;5.364;2023-04-29T23:27:04;5.78;;;4.85;;
48026;SDS011;50714;49.208;5.364;2023-04-29T23:37:05;6.05;;;4.97;;
48026;SDS011;50714;49.208;5.364;2023-04-29T23:47:05;6.45;;;5.10;;
48026;SDS011;50714;49.208;5.364;2023-04-29T23:57:05;7.05;;;5.70;;
